sensor_id;sensor_type;location;lat;lon;timestamp;pressure;altitude;pressure_sealevel;temperature;humidity
42591;BME280;28218;53.342;-6.216;2023-03-16T00:02:16;99136.19;;;10.00;100.00
42591;BME280;28218;53.342;-6.216;2023-03-16T00:04:46;99130.31;;;10.05;100.00
42591;BME280;28218;53.342;-6.216;2023-03-16T00:07:14;99124.03;;;10.06;100.00
42591;BME280;28218;53.342;-6.216;2023-03-16T00:09:43;99121.41;;;10.06;100.00
42591;BME280;28218;53.342;-6.216;2023-03-16T00:12:13;99123.88;;;10.07;100.00
42591;BME280;28218;53.342;-6.216;2023-03-16T00:14:43;99108.66;;;10.09;100.00
42591;BME280;28218;53.342;-6.216;2023-03-16T00:17:13;99111.09;;;10.11;100.00
42591;BME280;28218;53.342;-6.216;2023-03-16T00:19:49;99099.97;;;10.09;100.00
42591;BME280;28218;53.342;-6.216;2023-03-16T00:22:22;99101.59;;;10.03;100.00
42591;BME280;28218;53.342;-6.216;2023-03-16T00:24:51;99102.00;;;10.00;100.00
42591;BME280;28218;53.342;-6.216;2023-03-16T00:27:20;99105.44;;;10.01;100.00
42591;BME280;28218;53.342;-6.216;2023-03-16T00:29:50;99102.78;;;10.01;100.00
42591;BME280;28218;53.342;-6.216;2023-03-16T00:32:23;99102.78;;;10.01;100.00
42591;BME280;28218;53.342;-6.216;2023-03-16T00:34:54;99096.50;;;10.02;100.00
42591;BME280;28218;53.342;-6.216;2023-03-16T00:37:24;99092.28;;;10.01;100.00
42591;BME280;28218;53.342;-6.216;2023-03-16T00:39:54;99092.28;;;10.01;100.00
42591;BME280;28218;53.342;-6.216;2023-03-16T00:42:24;99101.19;;;9.99;100.00
42591;BME280;28218;53.342;-6.216;2023-03-16T00:44:53;99101.78;;;10.02;100.00
42591;BME280;28218;53.342;-6.216;2023-03-16T00:47:24;99089.66;;;10.01;100.00
42591;BME280;28218;53.342;-6.216;2023-03-16T00:49:56;99090.25;;;10.03;100.00
42591;BME280;28218;53.342;-6.216;2023-03-16T00:52:27;99082.38;;;10.03;100.00
42591;BME280;28218;53.342;-6.216;2023-03-16T00:54:56;99066.16;;;10.06;100.00
42591;BME280;28218;53.342;-6.216;2023-03-16T00:57:24;99072.03;;;10.08;100.00
42591;BME280;28218;53.342;-6.216;2023-03-16T00:59:53;99066.34;;;10.11;100.00
42591;BME280;28218;53.342;-6.216;2023-03-16T01:02:21;99064.53;;;10.11;100.00
42591;BME280;28218;53.342;-6.216;2023-03-16T01:04:51;99047.75;;;10.12;100.00
42591;BME280;28218;53.342;-6.216;2023-03-16T01:07:21;99048.53;;;10.13;100.00
42591;BME280;28218;53.342;-6.216;2023-03-16T01:09:50;99050.97;;;10.14;100.00
42591;BME280;28218;53.342;-6.216;2023-03-16T01:12:18;99047.53;;;10.14;100.00
42591;BME280;28218;53.342;-6.216;2023-03-16T01:14:47;99046.72;;;10.13;100.00
42591;BME280;28218;53.342;-6.216;2023-03-16T01:17:16;99059.88;;;10.13;100.00
42591;BME280;28218;53.342;-6.216;2023-03-16T01:19:45;99060.69;;;10.14;100.00
42591;BME280;28218;53.342;-6.216;2023-03-16T01:22:14;99058.63;;;10.16;100.00
42591;BME280;28218;53.342;-6.216;2023-03-16T01:24:44;99046.50;;;10.15;100.00
42591;BME280;28218;53.342;-6.216;2023-03-16T01:27:13;99042.84;;;10.16;100.00
42591;BME280;28218;53.342;-6.216;2023-03-16T01:29:41;99032.94;;;10.18;100.00
42591;BME280;28218;53.342;-6.216;2023-03-16T01:32:11;99030.91;;;10.20;100.00
42591;BME280;28218;53.342;-6.216;2023-03-16T01:34:39;99030.72;;;10.21;100.00
42591;BME280;28218;53.342;-6.216;2023-03-16T01:37:07;99025.44;;;10.21;100.00
42591;BME280;28218;53.342;-6.216;2023-03-16T01:39:36;99014.91;;;10.21;100.00
42591;BME280;28218;53.342;-6.216;2023-03-16T01:42:06;99019.78;;;10.24;100.00
42591;BME280;28218;53.342;-6.216;2023-03-16T01:44:50;99022.41;;;10.24;100.00
42591;BME280;28218;53.342;-6.216;2023-03-16T01:47:18;99020.59;;;10.25;100.00
42591;BME280;28218;53.342;-6.216;2023-03-16T01:49:49;99007.41;;;10.25;100.00
42591;BME280;28218;53.342;-6.216;2023-03-16T01:52:23;99003.19;;;10.24;100.00
42591;BME280;28218;53.342;-6.216;2023-03-16T01:54:52;99015.72;;;10.22;100.00
42591;BME280;28218;53.342;-6.216;2023-03-16T01:57:26;99003.38;;;10.22;100.00
42591;BME280;28218;53.342;-6.216;2023-03-16T01:59:58;98991.41;;;10.20;100.00
42591;BME280;28218;53.342;-6.216;2023-03-16T02:02:48;98993.06;;;10.21;100.00
42591;BME280;28218;53.342;-6.216;2023-03-16T02:05:21;99006.63;;;10.24;100.00
42591;BME280;28218;53.342;-6.216;2023-03-16T02:07:51;98997.91;;;10.24;100.00
42591;BME280;28218;53.342;-6.216;2023-03-16T02:10:26;98994.88;;;10.27;100.00
42591;BME280;28218;53.342;-6.216;2023-03-16T02:12:57;98995.91;;;10.26;100.00
42591;BME280;28218;53.342;-6.216;2023-03-16T02:15:26;98988.59;;;10.28;100.00
42591;BME280;28218;53.342;-6.216;2023-03-16T02:17:55;98984.13;;;10.29;100.00
42591;BME280;28218;53.342;-6.216;2023-03-16T02:20:33;98986.53;;;10.30;100.00
42591;BME280;28218;53.342;-6.216;2023-03-16T02:23:04;98981.69;;;10.34;100.00
42591;BME280;28218;53.342;-6.216;2023-03-16T02:25:39;98983.69;;;10.38;100.00
42591;BME280;28218;53.342;-6.216;2023-03-16T02:28:16;98965.44;;;10.43;100.00
42591;BME280;28218;53.342;-6.216;2023-03-16T02:30:49;98955.28;;;10.47;100.00
42591;BME280;28218;53.342;-6.216;2023-03-16T02:33:18;98946.81;;;10.45;100.00
42591;BME280;28218;53.342;-6.216;2023-03-16T02:35:47;98938.91;;;10.45;100.00
42591;BME280;28218;53.342;-6.216;2023-03-16T02:38:15;98934.00;;;10.48;100.00
42591;BME280;28218;53.342;-6.216;2023-03-16T02:40:45;98931.38;;;10.48;100.00
42591;BME280;28218;53.342;-6.216;2023-03-16T02:43:24;98923.69;;;10.47;100.00
42591;BME280;28218;53.342;-6.216;2023-03-16T02:45:58;98924.72;;;10.46;100.00
42591;BME280;28218;53.342;-6.216;2023-03-16T02:48:32;98933.44;;;10.46;100.00
42591;BME280;28218;53.342;-6.216;2023-03-16T02:51:02;98942.34;;;10.45;100.00
42591;BME280;28218;53.342;-6.216;2023-03-16T02:53:31;98934.81;;;10.49;100.00
42591;BME280;28218;53.342;-6.216;2023-03-16T02:55:59;98941.72;;;10.50;100.00
42591;BME280;28218;53.342;-6.216;2023-03-16T02:58:28;98929.34;;;10.51;100.00
42591;BME280;28218;53.342;-6.216;2023-03-16T03:00:59;98937.03;;;10.52;100.00
42591;BME280;28218;53.342;-6.216;2023-03-16T03:03:27;98943.09;;;10.53;100.00
42591;BME280;28218;53.342;-6.216;2023-03-16T03:05:55;98928.91;;;10.54;100.00
42591;BME280;28218;53.342;-6.216;2023-03-16T03:08:23;98948.53;;;10.58;100.00
42591;BME280;28218;53.342;-6.216;2023-03-16T03:10:52;98949.34;;;10.58;100.00
42591;BME280;28218;53.342;-6.216;2023-03-16T03:13:20;98937.81;;;10.59;100.00
42591;BME280;28218;53.342;-6.216;2023-03-16T03:15:49;98928.09;;;10.60;100.00
42591;BME280;28218;53.342;-6.216;2023-03-16T03:18:20;98924.66;;;10.59;100.00
42591;BME280;28218;53.342;-6.216;2023-03-16T03:20:48;98922.38;;;10.63;100.00
42591;BME280;28218;53.342;-6.216;2023-03-16T03:23:16;98924.81;;;10.64;100.00
42591;BME280;28218;53.342;-6.216;2023-03-16T03:25:44;98922.78;;;10.66;100.00
42591;BME280;28218;53.342;-6.216;2023-03-16T03:28:13;98908.00;;;10.65;100.00
42591;BME280;28218;53.342;-6.216;2023-03-16T03:30:42;98892.78;;;10.67;100.00
42591;BME280;28218;53.342;-6.216;2023-03-16T03:33:10;98903.91;;;10.69;100.00
42591;BME280;28218;53.342;-6.216;2023-03-16T03:35:40;98899.44;;;10.70;100.00
42591;BME280;28218;53.342;-6.216;2023-03-16T03:38:09;98896.81;;;10.70;100.00
42591;BME280;28218;53.342;-6.216;2023-03-16T03:40:37;98886.28;;;10.70;100.00
42591;BME280;28218;53.342;-6.216;2023-03-16T03:43:05;98888.69;;;10.71;100.00
42591;BME280;28218;53.342;-6.216;2023-03-16T03:45:33;98886.44;;;10.75;100.00
42591;BME280;28218;53.342;-6.216;2023-03-16T03:48:01;98884.63;;;10.75;100.00
42591;BME280;28218;53.342;-6.216;2023-03-16T03:50:30;98881.41;;;10.73;100.00
42591;BME280;28218;53.342;-6.216;2023-03-16T03:52:59;98883.81;;;10.75;100.00
42591;BME280;28218;53.342;-6.216;2023-03-16T03:55:27;98876.13;;;10.73;100.00
42591;BME280;28218;53.342;-6.216;2023-03-16T03:57:55;98885.88;;;10.73;100.00
42591;BME280;28218;53.342;-6.216;2023-03-16T04:00:24;98885.03;;;10.72;100.00
42591;BME280;28218;53.342;-6.216;2023-03-16T04:02:52;98869.22;;;10.72;100.00
42591;BME280;28218;53.342;-6.216;2023-03-16T04:05:21;98856.06;;;10.72;100.00
42591;BME280;28218;53.342;-6.216;2023-03-16T04:07:51;98855.22;;;10.79;100.00
42591;BME280;28218;53.342;-6.216;2023-03-16T04:10:24;98864.72;;;10.80;100.00
42591;BME280;28218;53.342;-6.216;2023-03-16T04:12:55;98877.31;;;10.78;100.00
42591;BME280;28218;53.342;-6.216;2023-03-16T04:15:24;98862.31;;;10.78;100.00
42591;BME280;28218;53.342;-6.216;2023-03-16T04:17:53;98860.25;;;10.80;100.00
42591;BME280;28218;53.342;-6.216;2023-03-16T04:20:21;98856.59;;;10.81;100.00
42591;BME280;28218;53.342;-6.216;2023-03-16T04:22:49;98856.41;;;10.83;100.00
42591;BME280;28218;53.342;-6.216;2023-03-16T04:25:26;98855.38;;;10.84;100.00
42591;BME280;28218;53.342;-6.216;2023-03-16T04:27:56;98853.31;;;10.86;100.00
42591;BME280;28218;53.342;-6.216;2023-03-16T04:30:24;98849.66;;;10.87;100.00
42591;BME280;28218;53.342;-6.216;2023-03-16T04:32:53;98837.31;;;10.87;100.00
42591;BME280;28218;53.342;-6.216;2023-03-16T04:35:22;98843.59;;;10.86;100.00
42591;BME280;28218;53.342;-6.216;2023-03-16T04:37:50;98848.66;;;10.88;100.00
42591;BME280;28218;53.342;-6.216;2023-03-16T04:40:18;98850.84;;;10.91;100.00
42591;BME280;28218;53.342;-6.216;2023-03-16T04:42:48;98856.91;;;10.91;100.00
42591;BME280;28218;53.342;-6.216;2023-03-16T04:45:16;98826.94;;;10.92;100.00
42591;BME280;28218;53.342;-6.216;2023-03-16T04:47:45;98825.09;;;10.93;100.00
42591;BME280;28218;53.342;-6.216;2023-03-16T04:50:13;98834.84;;;10.92;100.00
42591;BME280;28218;53.342;-6.216;2023-03-16T04:52:41;98840.13;;;10.92;100.00
42591;BME280;28218;53.342;-6.216;2023-03-16T04:55:09;98836.66;;;10.92;100.00
42591;BME280;28218;53.342;-6.216;2023-03-16T04:57:37;98837.47;;;10.92;100.00
42591;BME280;28218;53.342;-6.216;2023-03-16T05:00:09;98840.69;;;10.94;100.00
42591;BME280;28218;53.342;-6.216;2023-03-16T05:02:44;98842.75;;;10.92;100.00
42591;BME280;28218;53.342;-6.216;2023-03-16T05:05:13;98832.78;;;10.94;100.00
42591;BME280;28218;53.342;-6.216;2023-03-16T05:07:42;98834.84;;;10.92;100.00
42591;BME280;28218;53.342;-6.216;2023-03-16T05:10:11;98829.91;;;10.96;100.00
42591;BME280;28218;53.342;-6.216;2023-03-16T05:12:40;98836.81;;;10.97;100.00
42591;BME280;28218;53.342;-6.216;2023-03-16T05:15:10;98850.19;;;10.95;100.00
42591;BME280;28218;53.342;-6.216;2023-03-16T05:17:39;98855.28;;;10.97;100.00
42591;BME280;28218;53.342;-6.216;2023-03-16T05:20:10;98877.16;;;10.97;100.00
42591;BME280;28218;53.342;-6.216;2023-03-16T05:22:43;98865.38;;;11.00;100.00
42591;BME280;28218;53.342;-6.216;2023-03-16T05:25:12;98861.72;;;11.01;100.00
42591;BME280;28218;53.342;-6.216;2023-03-16T05:27:41;98858.88;;;11.03;100.00
42591;BME280;28218;53.342;-6.216;2023-03-16T05:30:12;98862.53;;;11.02;100.00
42591;BME280;28218;53.342;-6.216;2023-03-16T05:32:42;98870.22;;;11.03;100.00
42591;BME280;28218;53.342;-6.216;2023-03-16T05:35:11;98857.84;;;11.04;100.00
42591;BME280;28218;53.342;-6.216;2023-03-16T05:37:40;98858.88;;;11.03;100.00
42591;BME280;28218;53.342;-6.216;2023-03-16T05:40:11;98854.03;;;10.99;100.00
42591;BME280;28218;53.342;-6.216;2023-03-16T05:42:44;98862.38;;;10.96;100.00
42591;BME280;28218;53.342;-6.216;2023-03-16T05:45:15;98862.38;;;10.96;100.00
42591;BME280;28218;53.342;-6.216;2023-03-16T05:47:43;98857.09;;;10.96;100.00
42591;BME280;28218;53.342;-6.216;2023-03-16T05:50:13;98865.00;;;10.96;100.00
42591;BME280;28218;53.342;-6.216;2023-03-16T05:52:43;98856.50;;;10.94;100.00
42591;BME280;28218;53.342;-6.216;2023-03-16T05:55:12;98856.28;;;10.96;100.00
42591;BME280;28218;53.342;-6.216;2023-03-16T05:57:41;98861.53;;;10.96;100.00
42591;BME280;28218;53.342;-6.216;2023-03-16T06:00:12;98869.44;;;10.96;100.00
42591;BME280;28218;53.342;-6.216;2023-03-16T06:02:45;98871.50;;;10.94;100.00
42591;BME280;28218;53.342;-6.216;2023-03-16T06:05:14;98870.69;;;10.93;100.00
42591;BME280;28218;53.342;-6.216;2023-03-16T06:07:42;98860.97;;;10.94;100.00
42591;BME280;28218;53.342;-6.216;2023-03-16T06:10:11;98863.59;;;10.94;100.00
42591;BME280;28218;53.342;-6.216;2023-03-16T06:12:40;98862.56;;;10.95;100.00
42591;BME280;28218;53.342;-6.216;2023-03-16T06:15:09;98873.34;;;10.93;100.00
42591;BME280;28218;53.342;-6.216;2023-03-16T06:17:38;98858.56;;;10.92;100.00
42591;BME280;28218;53.342;-6.216;2023-03-16T06:20:10;98843.75;;;10.91;100.00
42591;BME280;28218;53.342;-6.216;2023-03-16T06:22:40;98841.09;;;10.91;100.00
42591;BME280;28218;53.342;-6.216;2023-03-16T06:25:09;98852.09;;;10.88;100.00
42591;BME280;28218;53.342;-6.216;2023-03-16T06:27:38;98840.75;;;10.88;100.00
42591;BME280;28218;53.342;-6.216;2023-03-16T06:30:08;98830.41;;;10.86;100.00
42591;BME280;28218;53.342;-6.216;2023-03-16T06:32:39;98818.50;;;10.84;100.00
42591;BME280;28218;53.342;-6.216;2023-03-16T06:35:10;98819.72;;;10.81;100.00
42591;BME280;28218;53.342;-6.216;2023-03-16T06:37:39;98797.47;;;10.77;100.00
42591;BME280;28218;53.342;-6.216;2023-03-16T06:40:08;98816.94;;;10.76;100.00
42591;BME280;28218;53.342;-6.216;2023-03-16T06:42:37;98835.81;;;10.73;100.00
42591;BME280;28218;53.342;-6.216;2023-03-16T06:45:06;98843.72;;;10.73;100.00
42591;BME280;28218;53.342;-6.216;2023-03-16T06:47:34;98842.47;;;10.75;100.00
42591;BME280;28218;53.342;-6.216;2023-03-16T06:50:03;98874.69;;;10.78;100.00
42591;BME280;28218;53.342;-6.216;2023-03-16T06:52:33;98880.75;;;10.78;100.00
42591;BME280;28218;53.342;-6.216;2023-03-16T06:55:01;98877.09;;;10.79;100.00
42591;BME280;28218;53.342;-6.216;2023-03-16T06:57:29;98880.75;;;10.78;100.00
42591;BME280;28218;53.342;-6.216;2023-03-16T06:59:58;98877.31;;;10.78;100.00
42591;BME280;28218;53.342;-6.216;2023-03-16T07:02:27;98880.53;;;10.80;100.00
42591;BME280;28218;53.342;-6.216;2023-03-16T07:04:55;98878.72;;;10.80;100.00
42591;BME280;28218;53.342;-6.216;2023-03-16T07:07:23;98881.94;;;10.82;100.00
42591;BME280;28218;53.342;-6.216;2023-03-16T07:09:54;98861.44;;;10.84;100.00
42591;BME280;28218;53.342;-6.216;2023-03-16T07:12:22;98861.03;;;10.87;100.00
42591;BME280;28218;53.342;-6.216;2023-03-16T07:14:54;98852.09;;;10.88;100.00
42591;BME280;28218;53.342;-6.216;2023-03-16T07:17:22;98849.47;;;10.88;100.00
42591;BME280;28218;53.342;-6.216;2023-03-16T07:19:50;98863.81;;;10.92;100.00
42591;BME280;28218;53.342;-6.216;2023-03-16T07:22:18;98852.03;;;10.95;100.00
42591;BME280;28218;53.342;-6.216;2023-03-16T07:24:47;98849.63;;;10.93;100.00
42591;BME280;28218;53.342;-6.216;2023-03-16T07:27:23;98859.94;;;10.95;100.00
42591;BME280;28218;53.342;-6.216;2023-03-16T07:29:51;98847.56;;;10.95;100.00
42591;BME280;28218;53.342;-6.216;2023-03-16T07:32:20;98857.09;;;10.96;100.00
42591;BME280;28218;53.342;-6.216;2023-03-16T07:34:49;98863.03;;;10.92;100.00
42591;BME280;28218;53.342;-6.216;2023-03-16T07:37:17;98869.50;;;10.89;100.00
42591;BME280;28218;53.342;-6.216;2023-03-16T07:39:51;98876.63;;;10.89;100.00
42591;BME280;28218;53.342;-6.216;2023-03-16T07:42:19;98870.75;;;10.87;100.00
42591;BME280;28218;53.342;-6.216;2023-03-16T07:44:49;98873.81;;;10.84;100.00
42591;BME280;28218;53.342;-6.216;2023-03-16T07:47:18;98874.41;;;10.86;100.00
42591;BME280;28218;53.342;-6.216;2023-03-16T07:49:46;98867.09;;;10.88;100.00
42591;BME280;28218;53.342;-6.216;2023-03-16T07:52:15;98875.19;;;10.86;100.00
42591;BME280;28218;53.342;-6.216;2023-03-16T07:54:43;98862.25;;;10.85;100.00
42591;BME280;28218;53.342;-6.216;2023-03-16T07:57:11;98879.91;;;10.84;100.00
42591;BME280;28218;53.342;-6.216;2023-03-16T07:59:39;98878.22;;;10.90;100.00
42591;BME280;28218;53.342;-6.216;2023-03-16T08:02:11;98877.00;;;10.92;100.00
42591;BME280;28218;53.342;-6.216;2023-03-16T08:04:40;98895.44;;;10.92;100.00
42591;BME280;28218;53.342;-6.216;2023-03-16T08:07:09;98881.66;;;10.90;100.00
42591;BME280;28218;53.342;-6.216;2023-03-16T08:09:38;98886.34;;;10.88;100.00
42591;BME280;28218;53.342;-6.216;2023-03-16T08:12:08;98895.44;;;10.92;100.00
42591;BME280;28218;53.342;-6.216;2023-03-16T08:14:37;98892.59;;;10.94;100.00
42591;BME280;28218;53.342;-6.216;2023-03-16T08:17:05;98912.00;;;10.99;100.00
42591;BME280;28218;53.342;-6.216;2023-03-16T08:19:36;98888.00;;;11.08;100.00
42591;BME280;28218;53.342;-6.216;2023-03-16T08:22:04;98865.25;;;11.13;100.00
42591;BME280;28218;53.342;-6.216;2023-03-16T08:24:32;98869.66;;;11.19;100.00
42591;BME280;28218;53.342;-6.216;2023-03-16T08:27:01;98879.13;;;11.27;100.00
42591;BME280;28218;53.342;-6.216;2023-03-16T08:29:29;98872.41;;;11.31;100.00
42591;BME280;28218;53.342;-6.216;2023-03-16T08:32:00;98873.34;;;11.37;100.00
42591;BME280;28218;53.342;-6.216;2023-03-16T08:34:28;98864.50;;;11.49;100.00
42591;BME280;28218;53.342;-6.216;2023-03-16T08:36:59;98864.22;;;11.58;100.00
42591;BME280;28218;53.342;-6.216;2023-03-16T08:39:27;98855.03;;;11.60;100.00
42591;BME280;28218;53.342;-6.216;2023-03-16T08:41:55;98843.47;;;11.61;100.00
42591;BME280;28218;53.342;-6.216;2023-03-16T08:44:24;98842.81;;;11.66;100.00
42591;BME280;28218;53.342;-6.216;2023-03-16T08:46:53;98831.97;;;11.74;100.00
42591;BME280;28218;53.342;-6.216;2023-03-16T08:49:21;98827.78;;;11.85;100.00
42591;BME280;28218;53.342;-6.216;2023-03-16T08:51:49;98821.66;;;11.91;100.00
42591;BME280;28218;53.342;-6.216;2023-03-16T08:54:19;98818.09;;;11.97;100.00
42591;BME280;28218;53.342;-6.216;2023-03-16T08:56:48;98817.78;;;12.05;100.00
42591;BME280;28218;53.342;-6.216;2023-03-16T08:59:17;98821.25;;;12.17;100.00
42591;BME280;28218;53.342;-6.216;2023-03-16T09:01:55;98818.88;;;12.27;100.00
42591;BME280;28218;53.342;-6.216;2023-03-16T09:04:24;98812.16;;;12.43;100.00
42591;BME280;28218;53.342;-6.216;2023-03-16T09:06:54;98807.50;;;12.57;100.00
42591;BME280;28218;53.342;-6.216;2023-03-16T09:09:36;98821.63;;;12.74;100.00
42591;BME280;28218;53.342;-6.216;2023-03-16T09:12:05;98813.28;;;12.89;100.00
42591;BME280;28218;53.342;-6.216;2023-03-16T09:14:34;98818.78;;;12.99;100.00
42591;BME280;28218;53.342;-6.216;2023-03-16T09:17:04;98831.19;;;13.11;100.00
42591;BME280;28218;53.342;-6.216;2023-03-16T09:19:34;98845.44;;;13.21;100.00
42591;BME280;28218;53.342;-6.216;2023-03-16T09:22:20;98839.59;;;13.31;100.00
42591;BME280;28218;53.342;-6.216;2023-03-16T09:24:50;98856.50;;;13.42;100.00
42591;BME280;28218;53.342;-6.216;2023-03-16T09:27:18;98855.31;;;13.49;100.00
42591;BME280;28218;53.342;-6.216;2023-03-16T09:29:48;98855.53;;;13.60;100.00
42591;BME280;28218;53.342;-6.216;2023-03-16T09:32:18;98879.25;;;13.66;100.00
42591;BME280;28218;53.342;-6.216;2023-03-16T09:34:47;98895.34;;;13.76;100.00
42591;BME280;28218;53.342;-6.216;2023-03-16T09:37:15;98911.06;;;13.83;100.00
42591;BME280;28218;53.342;-6.216;2023-03-16T09:39:43;98930.53;;;13.89;100.00
42591;BME280;28218;53.342;-6.216;2023-03-16T09:42:17;98938.25;;;13.90;100.00
42591;BME280;28218;53.342;-6.216;2023-03-16T09:44:58;98958.84;;;14.00;100.00
42591;BME280;28218;53.342;-6.216;2023-03-16T09:47:33;98968.81;;;14.10;100.00
42591;BME280;28218;53.342;-6.216;2023-03-16T09:50:05;98971.56;;;14.15;100.00
42591;BME280;28218;53.342;-6.216;2023-03-16T09:52:39;98988.03;;;14.28;100.00
42591;BME280;28218;53.342;-6.216;2023-03-16T09:55:25;99008.16;;;14.41;100.00
42591;BME280;28218;53.342;-6.216;2023-03-16T09:57:56;99014.03;;;14.55;100.00
42591;BME280;28218;53.342;-6.216;2023-03-16T10:00:28;99024.47;;;14.62;100.00
42591;BME280;28218;53.342;-6.216;2023-03-16T10:03:05;99040.97;;;14.64;100.00
42591;BME280;28218;53.342;-6.216;2023-03-16T10:05:38;99044.19;;;14.66;100.00
42591;BME280;28218;53.342;-6.216;2023-03-16T10:08:11;99060.06;;;14.77;100.00
42591;BME280;28218;53.342;-6.216;2023-03-16T10:11:04;99082.72;;;14.85;100.00
42591;BME280;28218;53.342;-6.216;2023-03-16T10:13:44;99102.53;;;14.94;100.00
42591;BME280;28218;53.342;-6.216;2023-03-16T10:16:18;99100.47;;;14.96;100.00
42591;BME280;28218;53.342;-6.216;2023-03-16T10:18:50;99114.00;;;15.12;100.00
42591;BME280;28218;53.342;-6.216;2023-03-16T10:21:22;99108.09;;;15.21;100.00
42591;BME280;28218;53.342;-6.216;2023-03-16T10:23:51;99102.16;;;15.31;100.00
42591;BME280;28218;53.342;-6.216;2023-03-16T10:26:27;99108.56;;;15.18;100.00
42591;BME280;28218;53.342;-6.216;2023-03-16T10:28:59;99124.19;;;15.03;100.00
42591;BME280;28218;53.342;-6.216;2023-03-16T10:31:27;99123.44;;;14.79;100.00
42591;BME280;28218;53.342;-6.216;2023-03-16T10:34:03;99142.03;;;14.55;100.00
42591;BME280;28218;53.342;-6.216;2023-03-16T10:36:34;99141.34;;;14.48;100.00
42591;BME280;28218;53.342;-6.216;2023-03-16T10:39:05;99142.81;;;14.44;100.00
42591;BME280;28218;53.342;-6.216;2023-03-16T10:41:35;99130.63;;;14.55;100.00
42591;BME280;28218;53.342;-6.216;2023-03-16T10:44:10;99131.50;;;14.72;100.00
42591;BME280;28218;53.342;-6.216;2023-03-16T10:46:40;99134.16;;;14.84;100.00
42591;BME280;28218;53.342;-6.216;2023-03-16T10:49:20;99131.91;;;15.04;100.00
42591;BME280;28218;53.342;-6.216;2023-03-16T10:51:49;99123.75;;;15.23;100.00
42591;BME280;28218;53.342;-6.216;2023-03-16T10:54:27;99126.28;;;15.29;100.00
42591;BME280;28218;53.342;-6.216;2023-03-16T10:56:58;99133.72;;;15.44;100.00
42591;BME280;28218;53.342;-6.216;2023-03-16T10:59:30;99133.97;;;15.59;100.00
42591;BME280;28218;53.342;-6.216;2023-03-16T11:02:01;99134.53;;;15.62;100.00
42591;BME280;28218;53.342;-6.216;2023-03-16T11:04:30;99135.69;;;15.66;100.00
42591;BME280;28218;53.342;-6.216;2023-03-16T11:06:59;99124.22;;;15.77;100.00
42591;BME280;28218;53.342;-6.216;2023-03-16T11:09:31;99132.97;;;15.77;100.00
42591;BME280;28218;53.342;-6.216;2023-03-16T11:12:11;99140.16;;;15.77;100.00
42591;BME280;28218;53.342;-6.216;2023-03-16T11:14:43;99132.81;;;15.84;100.00
42591;BME280;28218;53.342;-6.216;2023-03-16T11:17:14;99144.09;;;15.91;100.00
42591;BME280;28218;53.342;-6.216;2023-03-16T11:19:50;99156.50;;;15.86;100.00
42591;BME280;28218;53.342;-6.216;2023-03-16T11:22:21;99151.91;;;15.81;100.00
42591;BME280;28218;53.342;-6.216;2023-03-16T11:24:54;99164.34;;;15.80;100.00
42591;BME280;28218;53.342;-6.216;2023-03-16T11:27:31;99167.59;;;15.82;100.00
42591;BME280;28218;53.342;-6.216;2023-03-16T11:30:08;99161.47;;;15.99;100.00
42591;BME280;28218;53.342;-6.216;2023-03-16T11:32:38;99171.22;;;16.10;100.00
42591;BME280;28218;53.342;-6.216;2023-03-16T11:35:15;99171.94;;;16.22;100.00
42591;BME280;28218;53.342;-6.216;2023-03-16T11:37:57;99193.06;;;16.29;100.00
42591;BME280;28218;53.342;-6.216;2023-03-16T11:40:39;99194.19;;;16.33;100.00
42591;BME280;28218;53.342;-6.216;2023-03-16T11:43:24;99190.78;;;16.38;100.00
42591;BME280;28218;53.342;-6.216;2023-03-16T11:46:08;99210.50;;;16.42;100.00
42591;BME280;28218;53.342;-6.216;2023-03-16T11:48:39;99212.59;;;16.56;100.00
42591;BME280;28218;53.342;-6.216;2023-03-16T11:51:16;99204.44;;;16.63;100.00
42591;BME280;28218;53.342;-6.216;2023-03-16T11:53:51;99200.25;;;16.50;100.00
42591;BME280;28218;53.342;-6.216;2023-03-16T11:56:30;99220.41;;;16.46;100.00
42591;BME280;28218;53.342;-6.216;2023-03-16T12:02:00;99221.19;;;16.64;100.00
42591;BME280;28218;53.342;-6.216;2023-03-16T12:04:49;99229.94;;;16.76;100.00
42591;BME280;28218;53.342;-6.216;2023-03-16T12:07:36;99218.78;;;16.79;100.00
42591;BME280;28218;53.342;-6.216;2023-03-16T12:10:18;99228.13;;;16.65;100.00
42591;BME280;28218;53.342;-6.216;2023-03-16T12:13:00;99220.88;;;16.60;100.00
42591;BME280;28218;53.342;-6.216;2023-03-16T12:15:34;99219.94;;;16.49;100.00
42591;BME280;28218;53.342;-6.216;2023-03-16T12:18:14;99223.63;;;16.31;100.00
42591;BME280;28218;53.342;-6.216;2023-03-16T12:20:47;99223.16;;;16.18;100.00
42591;BME280;28218;53.342;-6.216;2023-03-16T12:23:20;99225.25;;;16.32;100.00
42591;BME280;28218;53.342;-6.216;2023-03-16T12:25:56;99234.28;;;16.31;100.00
42591;BME280;28218;53.342;-6.216;2023-03-16T12:28:26;99227.91;;;16.16;100.00
42591;BME280;28218;53.342;-6.216;2023-03-16T12:31:04;99231.13;;;16.18;100.00
42591;BME280;28218;53.342;-6.216;2023-03-16T12:33:45;99229.19;;;16.30;100.00
42591;BME280;28218;53.342;-6.216;2023-03-16T12:36:34;99227.91;;;16.49;100.00
42591;BME280;28218;53.342;-6.216;2023-03-16T12:39:07;99223.59;;;16.65;100.00
42591;BME280;28218;53.342;-6.216;2023-03-16T12:41:51;99222.72;;;16.59;100.00
42591;BME280;28218;53.342;-6.216;2023-03-16T12:44:29;99236.53;;;16.56;100.00
42591;BME280;28218;53.342;-6.216;2023-03-16T12:47:05;99237.25;;;16.35;100.00
42591;BME280;28218;53.342;-6.216;2023-03-16T12:49:37;99248.69;;;16.19;100.00
42591;BME280;28218;53.342;-6.216;2023-03-16T12:52:08;99236.78;;;16.21;100.00
42591;BME280;28218;53.342;-6.216;2023-03-16T12:54:48;99239.91;;;16.35;100.00
42591;BME280;28218;53.342;-6.216;2023-03-16T12:57:18;99240.41;;;16.49;100.00
42591;BME280;28218;53.342;-6.216;2023-03-16T12:59:47;99242.94;;;16.60;100.00
42591;BME280;28218;53.342;-6.216;2023-03-16T13:02:19;99245.25;;;16.52;100.00
42591;BME280;28218;53.342;-6.216;2023-03-16T13:04:56;99249.72;;;16.51;100.00